sensor_id;sensor_type;location;lat;lon;timestamp;temperature;humidity
47520;DHT22;33252;48.122;11.538;2023-02-28T00:00:27;-2.20;97.70
47520;DHT22;33252;48.122;11.538;2023-02-28T00:02:53;-2.20;97.80
47520;DHT22;33252;48.122;11.538;2023-02-28T00:05:21;-2.30;97.60
47520;DHT22;33252;48.122;11.538;2023-02-28T00:07:48;-2.30;97.70
47520;DHT22;33252;48.122;11.538;2023-02-28T00:10:17;-2.40;97.80
47520;DHT22;33252;48.122;11.538;2023-02-28T00:12:49;-2.40;97.90
47520;DHT22;33252;48.122;11.538;2023-02-28T00:15:16;-2.50;98.20
47520;DHT22;33252;48.122;11.538;2023-02-28T00:17:42;-2.50;98.10
47520;DHT22;33252;48.122;11.538;2023-02-28T00:20:09;-2.40;98.10
47520;DHT22;33252;48.122;11.538;2023-02-28T00:22:39;-2.40;97.90
47520;DHT22;33252;48.122;11.538;2023-02-28T00:25:06;-2.40;98.00
47520;DHT22;33252;48.122;11.538;2023-02-28T00:27:35;-2.40;98.10
47520;DHT22;33252;48.122;11.538;2023-02-28T00:30:01;-2.40;98.10
47520;DHT22;33252;48.122;11.538;2023-02-28T00:32:27;-2.50;98.10
47520;DHT22;33252;48.122;11.538;2023-02-28T00:34:52;-2.60;98.20
47520;DHT22;33252;48.122;11.538;2023-02-28T00:37:18;-2.50;98.20
47520;DHT22;33252;48.122;11.538;2023-02-28T00:39:44;-2.60;98.40
47520;DHT22;33252;48.122;11.538;2023-02-28T00:42:09;-2.50;98.40
47520;DHT22;33252;48.122;11.538;2023-02-28T00:44:35;-2.50;98.10
47520;DHT22;33252;48.122;11.538;2023-02-28T00:47:01;-2.50;98.30
47520;DHT22;33252;48.122;11.538;2023-02-28T00:49:27;-2.50;98.20
47520;DHT22;33252;48.122;11.538;2023-02-28T00:51:54;-2.60;98.30
47520;DHT22;33252;48.122;11.538;2023-02-28T00:54:20;-2.50;98.50
47520;DHT22;33252;48.122;11.538;2023-02-28T00:56:46;-2.60;98.50
47520;DHT22;33252;48.122;11.538;2023-02-28T00:59:16;-2.70;98.60
47520;DHT22;33252;48.122;11.538;2023-02-28T01:01:46;-2.70;98.60
47520;DHT22;33252;48.122;11.538;2023-02-28T01:04:12;-2.70;98.40
47520;DHT22;33252;48.122;11.538;2023-02-28T01:06:38;-2.70;98.70
47520;DHT22;33252;48.122;11.538;2023-02-28T01:09:06;-2.70;98.80
47520;DHT22;33252;48.122;11.538;2023-02-28T01:11:33;-2.70;98.70
47520;DHT22;33252;48.122;11.538;2023-02-28T01:13:59;-2.60;98.70
47520;DHT22;33252;48.122;11.538;2023-02-28T01:16:25;-2.60;98.60
47520;DHT22;33252;48.122;11.538;2023-02-28T01:18:51;-2.70;98.70
47520;DHT22;33252;48.122;11.538;2023-02-28T01:21:19;-2.70;98.60
47520;DHT22;33252;48.122;11.538;2023-02-28T01:23:45;-2.70;98.50
47520;DHT22;33252;48.122;11.538;2023-02-28T01:26:13;-2.70;98.80
47520;DHT22;33252;48.122;11.538;2023-02-28T01:28:39;-2.70;98.70
47520;DHT22;33252;48.122;11.538;2023-02-28T01:31:05;-2.70;98.80
47520;DHT22;33252;48.122;11.538;2023-02-28T01:33:32;-2.70;98.50
47520;DHT22;33252;48.122;11.538;2023-02-28T01:35:59;-2.80;98.90
47520;DHT22;33252;48.122;11.538;2023-02-28T01:38:25;-2.70;98.90
47520;DHT22;33252;48.122;11.538;2023-02-28T01:40:50;-2.80;98.70
47520;DHT22;33252;48.122;11.538;2023-02-28T01:43:25;-2.70;98.80
47520;DHT22;33252;48.122;11.538;2023-02-28T01:45:52;-2.80;98.80
47520;DHT22;33252;48.122;11.538;2023-02-28T01:48:23;-2.80;98.80
47520;DHT22;33252;48.122;11.538;2023-02-28T01:50:49;-2.80;98.90
47520;DHT22;33252;48.122;11.538;2023-02-28T01:53:19;-2.80;98.90
47520;DHT22;33252;48.122;11.538;2023-02-28T01:55:48;-2.90;99.00
47520;DHT22;33252;48.122;11.538;2023-02-28T01:58:16;-2.80;99.20
47520;DHT22;33252;48.122;11.538;2023-02-28T02:00:41;-2.80;99.00
47520;DHT22;33252;48.122;11.538;2023-02-28T02:03:13;-2.80;99.10
47520;DHT22;33252;48.122;11.538;2023-02-28T02:05:41;-2.80;99.10
47520;DHT22;33252;48.122;11.538;2023-02-28T02:08:12;-2.90;99.10
47520;DHT22;33252;48.122;11.538;2023-02-28T02:21:47;-2.80;99.10
47520;DHT22;33252;48.122;11.538;2023-02-28T02:38:37;-2.90;99.40
47520;DHT22;33252;48.122;11.538;2023-02-28T02:41:39;-2.90;99.30
47520;DHT22;33252;48.122;11.538;2023-02-28T02:44:21;-2.90;99.30
47520;DHT22;33252;48.122;11.538;2023-02-28T02:46:52;-3.00;99.60
47520;DHT22;33252;48.122;11.538;2023-02-28T02:49:28;-2.80;99.40
47520;DHT22;33252;48.122;11.538;2023-02-28T02:51:58;-3.00;99.40
47520;DHT22;33252;48.122;11.538;2023-02-28T02:54:30;-2.90;99.70
47520;DHT22;33252;48.122;11.538;2023-02-28T02:57:00;-2.90;99.60
47520;DHT22;33252;48.122;11.538;2023-02-28T02:59:28;-3.00;99.70
47520;DHT22;33252;48.122;11.538;2023-02-28T03:02:01;-3.10;99.80
47520;DHT22;33252;48.122;11.538;2023-02-28T03:04:32;-3.10;99.90
47520;DHT22;33252;48.122;11.538;2023-02-28T03:07:00;-3.10;99.90
47520;DHT22;33252;48.122;11.538;2023-02-28T03:09:26;-3.10;99.90
47520;DHT22;33252;48.122;11.538;2023-02-28T03:11:54;-3.10;99.90
47520;DHT22;33252;48.122;11.538;2023-02-28T03:14:32;-3.20;99.90
47520;DHT22;33252;48.122;11.538;2023-02-28T03:20:13;-3.10;99.90
47520;DHT22;33252;48.122;11.538;2023-02-28T03:22:48;-3.00;99.90
47520;DHT22;33252;48.122;11.538;2023-02-28T03:25:43;-3.20;99.90
47520;DHT22;33252;48.122;11.538;2023-02-28T03:36:29;-3.20;99.90
47520;DHT22;33252;48.122;11.538;2023-02-28T03:39:00;-3.20;99.90
47520;DHT22;33252;48.122;11.538;2023-02-28T03:41:48;-3.10;99.90
47520;DHT22;33252;48.122;11.538;2023-02-28T03:44:38;-3.30;99.90
47520;DHT22;33252;48.122;11.538;2023-02-28T03:47:25;-3.20;99.90
47520;DHT22;33252;48.122;11.538;2023-02-28T03:50:02;-3.10;99.90
47520;DHT22;33252;48.122;11.538;2023-02-28T03:52:37;-3.10;99.90
47520;DHT22;33252;48.122;11.538;2023-02-28T03:55:07;-3.20;99.90
47520;DHT22;33252;48.122;11.538;2023-02-28T04:00:24;-3.20;99.90
47520;DHT22;33252;48.122;11.538;2023-02-28T04:02:54;-3.20;99.90
47520;DHT22;33252;48.122;11.538;2023-02-28T04:05:21;-3.10;99.90
47520;DHT22;33252;48.122;11.538;2023-02-28T04:07:47;-3.10;99.90
47520;DHT22;33252;48.122;11.538;2023-02-28T04:10:14;-3.20;99.90
47520;DHT22;33252;48.122;11.538;2023-02-28T04:12:40;-3.20;99.90
47520;DHT22;33252;48.122;11.538;2023-02-28T04:15:06;-3.10;99.90
47520;DHT22;33252;48.122;11.538;2023-02-28T04:17:32;-3.20;99.90
47520;DHT22;33252;48.122;11.538;2023-02-28T04:19:57;-3.20;99.90
47520;DHT22;33252;48.122;11.538;2023-02-28T04:22:23;-3.10;99.90
47520;DHT22;33252;48.122;11.538;2023-02-28T04:24:52;-3.00;99.90
47520;DHT22;33252;48.122;11.538;2023-02-28T04:27:19;-3.10;99.90
47520;DHT22;33252;48.122;11.538;2023-02-28T04:29:45;-3.00;99.90
47520;DHT22;33252;48.122;11.538;2023-02-28T04:32:11;-3.10;99.90
47520;DHT22;33252;48.122;11.538;2023-02-28T04:34:36;-3.00;99.90
47520;DHT22;33252;48.122;11.538;2023-02-28T04:37:02;-3.00;99.90
47520;DHT22;33252;48.122;11.538;2023-02-28T04:39:28;-3.00;99.90
47520;DHT22;33252;48.122;11.538;2023-02-28T04:41:55;-3.10;99.90
47520;DHT22;33252;48.122;11.538;2023-02-28T04:44:21;-2.90;99.90
47520;DHT22;33252;48.122;11.538;2023-02-28T04:46:48;-2.80;99.90
47520;DHT22;33252;48.122;11.538;2023-02-28T04:49:14;-2.70;99.90
47520;DHT22;33252;48.122;11.538;2023-02-28T04:51:41;-2.70;99.90
47520;DHT22;33252;48.122;11.538;2023-02-28T04:54:07;-2.70;99.90
47520;DHT22;33252;48.122;11.538;2023-02-28T04:56:33;-2.70;99.90
47520;DHT22;33252;48.122;11.538;2023-02-28T04:58:59;-2.70;99.90
47520;DHT22;33252;48.122;11.538;2023-02-28T05:03:51;-2.60;99.90
47520;DHT22;33252;48.122;11.538;2023-02-28T05:06:18;-2.50;99.90
47520;DHT22;33252;48.122;11.538;2023-02-28T05:08:44;-2.50;99.90
47520;DHT22;33252;48.122;11.538;2023-02-28T05:11:22;-2.50;99.90
47520;DHT22;33252;48.122;11.538;2023-02-28T05:13:50;-2.50;99.90
47520;DHT22;33252;48.122;11.538;2023-02-28T05:16:16;-2.40;99.90
47520;DHT22;33252;48.122;11.538;2023-02-28T05:18:41;-2.40;99.90
47520;DHT22;33252;48.122;11.538;2023-02-28T05:23:50;-2.40;99.90
47520;DHT22;33252;48.122;11.538;2023-02-28T05:26:16;-2.50;99.90
47520;DHT22;33252;48.122;11.538;2023-02-28T05:28:41;-2.40;99.90
47520;DHT22;33252;48.122;11.538;2023-02-28T05:31:10;-2.40;99.90
47520;DHT22;33252;48.122;11.538;2023-02-28T05:33:36;-2.40;99.90
47520;DHT22;33252;48.122;11.538;2023-02-28T05:36:02;-2.40;99.90
47520;DHT22;33252;48.122;11.538;2023-02-28T05:38:27;-2.40;99.90
47520;DHT22;33252;48.122;11.538;2023-02-28T05:40:53;-2.40;99.90
47520;DHT22;33252;48.122;11.538;2023-02-28T05:43:18;-2.30;99.90
47520;DHT22;33252;48.122;11.538;2023-02-28T05:45:44;-2.20;99.90
47520;DHT22;33252;48.122;11.538;2023-02-28T05:48:10;-2.20;99.90
47520;DHT22;33252;48.122;11.538;2023-02-28T05:50:35;-2.30;99.90
47520;DHT22;33252;48.122;11.538;2023-02-28T05:53:02;-2.30;99.90
47520;DHT22;33252;48.122;11.538;2023-02-28T05:55:27;-2.30;99.90
47520;DHT22;33252;48.122;11.538;2023-02-28T05:57:53;-2.20;99.90
47520;DHT22;33252;48.122;11.538;2023-02-28T06:00:19;-2.20;99.90
47520;DHT22;33252;48.122;11.538;2023-02-28T06:02:45;-2.20;99.90
47520;DHT22;33252;48.122;11.538;2023-02-28T06:05:14;-2.20;99.90
47520;DHT22;33252;48.122;11.538;2023-02-28T06:07:40;-2.00;99.90
47520;DHT22;33252;48.122;11.538;2023-02-28T06:10:06;-2.10;99.90
47520;DHT22;33252;48.122;11.538;2023-02-28T06:12:32;-2.10;99.90
47520;DHT22;33252;48.122;11.538;2023-02-28T06:14:57;-2.20;99.90
47520;DHT22;33252;48.122;11.538;2023-02-28T06:17:23;-2.10;99.90
47520;DHT22;33252;48.122;11.538;2023-02-28T06:19:49;-2.00;99.90
47520;DHT22;33252;48.122;11.538;2023-02-28T06:22:14;-2.10;99.90
47520;DHT22;33252;48.122;11.538;2023-02-28T06:24:40;-2.10;99.90
47520;DHT22;33252;48.122;11.538;2023-02-28T06:27:05;-2.10;99.90
47520;DHT22;33252;48.122;11.538;2023-02-28T06:29:32;-2.10;99.90
47520;DHT22;33252;48.122;11.538;2023-02-28T06:31:58;-2.10;99.90
47520;DHT22;33252;48.122;11.538;2023-02-28T06:34:24;-2.10;99.80
47520;DHT22;33252;48.122;11.538;2023-02-28T06:36:51;-2.10;99.70
47520;DHT22;33252;48.122;11.538;2023-02-28T06:39:17;-2.10;99.50
47520;DHT22;33252;48.122;11.538;2023-02-28T06:41:43;-2.10;99.50
47520;DHT22;33252;48.122;11.538;2023-02-28T06:44:19;-2.00;99.60
47520;DHT22;33252;48.122;11.538;2023-02-28T06:46:45;-2.10;99.50
47520;DHT22;33252;48.122;11.538;2023-02-28T06:49:11;-2.10;99.80
47520;DHT22;33252;48.122;11.538;2023-02-28T06:51:39;-2.00;99.70
47520;DHT22;33252;48.122;11.538;2023-02-28T06:54:05;-2.00;99.50
47520;DHT22;33252;48.122;11.538;2023-02-28T06:56:31;-1.90;99.50
47520;DHT22;33252;48.122;11.538;2023-02-28T06:58:56;-2.00;99.30
47520;DHT22;33252;48.122;11.538;2023-02-28T07:01:22;-1.90;99.40
47520;DHT22;33252;48.122;11.538;2023-02-28T07:03:49;-1.90;99.50
47520;DHT22;33252;48.122;11.538;2023-02-28T07:06:18;-1.90;99.40
47520;DHT22;33252;48.122;11.538;2023-02-28T07:08:44;-2.10;99.70
47520;DHT22;33252;48.122;11.538;2023-02-28T07:11:10;-2.00;99.50
47520;DHT22;33252;48.122;11.538;2023-02-28T07:13:36;-2.00;99.70
47520;DHT22;33252;48.122;11.538;2023-02-28T07:16:04;-1.90;99.60
47520;DHT22;33252;48.122;11.538;2023-02-28T07:18:31;-1.90;99.70
47520;DHT22;33252;48.122;11.538;2023-02-28T07:20:57;-1.90;99.20
47520;DHT22;33252;48.122;11.538;2023-02-28T07:23:23;-2.00;99.30
47520;DHT22;33252;48.122;11.538;2023-02-28T07:25:50;-1.90;99.40
47520;DHT22;33252;48.122;11.538;2023-02-28T07:28:16;-1.90;99.50
47520;DHT22;33252;48.122;11.538;2023-02-28T07:30:42;-1.90;99.60
47520;DHT22;33252;48.122;11.538;2023-02-28T07:33:08;-1.80;99.70
47520;DHT22;33252;48.122;11.538;2023-02-28T07:35:33;-1.70;99.70
47520;DHT22;33252;48.122;11.538;2023-02-28T07:38:00;-1.80;99.60
47520;DHT22;33252;48.122;11.538;2023-02-28T07:40:26;-1.80;99.70
47520;DHT22;33252;48.122;11.538;2023-02-28T07:42:52;-1.80;99.70
47520;DHT22;33252;48.122;11.538;2023-02-28T07:45:18;-1.70;99.40
47520;DHT22;33252;48.122;11.538;2023-02-28T07:47:45;-1.80;99.40
47520;DHT22;33252;48.122;11.538;2023-02-28T07:50:13;-1.80;99.30
47520;DHT22;33252;48.122;11.538;2023-02-28T07:52:39;-1.80;99.80
47520;DHT22;33252;48.122;11.538;2023-02-28T07:55:06;-1.80;99.70
47520;DHT22;33252;48.122;11.538;2023-02-28T07:57:32;-1.70;99.70
47520;DHT22;33252;48.122;11.538;2023-02-28T07:59:58;-1.70;99.30
47520;DHT22;33252;48.122;11.538;2023-02-28T08:02:24;-1.70;99.00
47520;DHT22;33252;48.122;11.538;2023-02-28T08:04:50;-1.70;99.30
47520;DHT22;33252;48.122;11.538;2023-02-28T08:07:16;-1.70;99.00
47520;DHT22;33252;48.122;11.538;2023-02-28T08:09:43;-1.60;99.00
47520;DHT22;33252;48.122;11.538;2023-02-28T08:12:09;-1.60;98.80
47520;DHT22;33252;48.122;11.538;2023-02-28T08:14:36;-1.60;99.30
47520;DHT22;33252;48.122;11.538;2023-02-28T08:17:03;-1.60;99.30
47520;DHT22;33252;48.122;11.538;2023-02-28T08:19:29;-1.60;99.20
47520;DHT22;33252;48.122;11.538;2023-02-28T08:21:55;-1.50;99.10
47520;DHT22;33252;48.122;11.538;2023-02-28T08:24:21;-1.50;99.40
47520;DHT22;33252;48.122;11.538;2023-02-28T08:26:46;-1.40;98.90
47520;DHT22;33252;48.122;11.538;2023-02-28T08:29:12;-1.50;99.00
47520;DHT22;33252;48.122;11.538;2023-02-28T08:31:38;-1.50;99.30
47520;DHT22;33252;48.122;11.538;2023-02-28T08:34:07;-1.50;99.10
47520;DHT22;33252;48.122;11.538;2023-02-28T08:36:34;-1.40;99.10
47520;DHT22;33252;48.122;11.538;2023-02-28T08:39:00;-1.40;99.20
47520;DHT22;33252;48.122;11.538;2023-02-28T08:41:26;-1.50;99.20
47520;DHT22;33252;48.122;11.538;2023-02-28T08:43:52;-1.50;99.30
47520;DHT22;33252;48.122;11.538;2023-02-28T08:46:19;-1.50;99.20
47520;DHT22;33252;48.122;11.538;2023-02-28T08:48:44;-1.40;99.00
47520;DHT22;33252;48.122;11.538;2023-02-28T08:51:14;-1.30;99.00
47520;DHT22;33252;48.122;11.538;2023-02-28T08:53:41;-1.40;98.80
47520;DHT22;33252;48.122;11.538;2023-02-28T08:56:09;-1.40;99.20
47520;DHT22;33252;48.122;11.538;2023-02-28T08:58:35;-1.40;99.40
47520;DHT22;33252;48.122;11.538;2023-02-28T09:01:11;-1.40;99.20
47520;DHT22;33252;48.122;11.538;2023-02-28T09:03:41;-1.40;98.90
47520;DHT22;33252;48.122;11.538;2023-02-28T09:08:38;-1.20;98.60
47520;DHT22;33252;48.122;11.538;2023-02-28T09:11:04;-1.20;98.70
47520;DHT22;33252;48.122;11.538;2023-02-28T09:13:31;-1.20;98.70
47520;DHT22;33252;48.122;11.538;2023-02-28T09:15:58;-1.10;98.70
47520;DHT22;33252;48.122;11.538;2023-02-28T09:18:24;-1.10;98.60
47520;DHT22;33252;48.122;11.538;2023-02-28T09:20:50;-1.00;98.40
47520;DHT22;33252;48.122;11.538;2023-02-28T09:23:16;-1.00;98.30
47520;DHT22;33252;48.122;11.538;2023-02-28T09:25:50;-0.90;98.10
47520;DHT22;33252;48.122;11.538;2023-02-28T09:28:17;-1.00;97.90
47520;DHT22;33252;48.122;11.538;2023-02-28T09:30:45;-0.90;97.90
47520;DHT22;33252;48.122;11.538;2023-02-28T09:33:12;-0.80;97.80
47520;DHT22;33252;48.122;11.538;2023-02-28T09:35:38;-0.80;97.70
47520;DHT22;33252;48.122;11.538;2023-02-28T09:38:04;-0.80;98.00
47520;DHT22;33252;48.122;11.538;2023-02-28T09:40:30;-0.80;98.10
47520;DHT22;33252;48.122;11.538;2023-02-28T09:42:57;-0.90;98.00
47520;DHT22;33252;48.122;11.538;2023-02-28T09:45:36;-0.80;98.10
47520;DHT22;33252;48.122;11.538;2023-02-28T09:48:10;-0.70;98.20
47520;DHT22;33252;48.122;11.538;2023-02-28T09:50:59;-0.70;98.30
47520;DHT22;33252;48.122;11.538;2023-02-28T09:53:29;-0.60;97.90
47520;DHT22;33252;48.122;11.538;2023-02-28T09:56:19;-0.60;97.80
47520;DHT22;33252;48.122;11.538;2023-02-28T09:59:18;-0.50;97.80
47520;DHT22;33252;48.122;11.538;2023-02-28T10:06:49;-0.60;97.60
47520;DHT22;33252;48.122;11.538;2023-02-28T10:09:17;-0.60;97.50
47520;DHT22;33252;48.122;11.538;2023-02-28T10:11:46;-0.50;97.70
47520;DHT22;33252;48.122;11.538;2023-02-28T10:14:19;-0.40;97.60
47520;DHT22;33252;48.122;11.538;2023-02-28T10:17:08;-0.40;97.40
47520;DHT22;33252;48.122;11.538;2023-02-28T10:22:40;-0.40;97.20
47520;DHT22;33252;48.122;11.538;2023-02-28T10:25:29;-0.30;97.40
47520;DHT22;33252;48.122;11.538;2023-02-28T10:28:15;-0.30;96.70
47520;DHT22;33252;48.122;11.538;2023-02-28T10:30:50;-0.30;97.20
47520;DHT22;33252;48.122;11.538;2023-02-28T10:33:34;-0.40;97.20
47520;DHT22;33252;48.122;11.538;2023-02-28T10:36:01;-0.30;96.90
47520;DHT22;33252;48.122;11.538;2023-02-28T10:38:33;-0.30;97.70
47520;DHT22;33252;48.122;11.538;2023-02-28T10:41:12;-0.10;97.20
47520;DHT22;33252;48.122;11.538;2023-02-28T10:43:41;-0.10;96.80
47520;DHT22;33252;48.122;11.538;2023-02-28T10:48:44;-0.10;96.40
47520;DHT22;33252;48.122;11.538;2023-02-28T10:51:13;-0.20;96.00
47520;DHT22;33252;48.122;11.538;2023-02-28T10:53:53;-0.10;96.20
47520;DHT22;33252;48.122;11.538;2023-02-28T10:56:21;0.00;96.20
47520;DHT22;33252;48.122;11.538;2023-02-28T10:59:27;-0.10;96.20
47520;DHT22;33252;48.122;11.538;2023-02-28T11:01:53;-0.10;95.60
47520;DHT22;33252;48.122;11.538;2023-02-28T11:07:20;-0.10;96.20
47520;DHT22;33252;48.122;11.538;2023-02-28T11:09:51;-0.10;96.40
47520;DHT22;33252;48.122;11.538;2023-02-28T11:12:31;0.00;95.70
47520;DHT22;33252;48.122;11.538;2023-02-28T11:15:03;0.00;96.30
47520;DHT22;33252;48.122;11.538;2023-02-28T11:17:33;0.00;96.40
47520;DHT22;33252;48.122;11.538;2023-02-28T11:20:04;0.00;96.10
47520;DHT22;33252;48.122;11.538;2023-02-28T11:22:35;0.10;96.20
47520;DHT22;33252;48.122;11.538;2023-02-28T11:25:09;0.10;96.40
47520;DHT22;33252;48.122;11.538;2023-02-28T11:28:23;0.10;96.40
47520;DHT22;33252;48.122;11.538;2023-02-28T11:33:48;0.50;96.30
47520;DHT22;33252;48.122;11.538;2023-02-28T11:36:23;0.50;95.60
47520;DHT22;33252;48.122;11.538;2023-02-28T11:38:53;0.50;95.80
47520;DHT22;33252;48.122;11.538;2023-02-28T11:46:52;0.70;95.70
47520;DHT22;33252;48.122;11.538;2023-02-28T11:49:34;0.80;95.60
47520;DHT22;33252;48.122;11.538;2023-02-28T11:52:02;1.10;95.60
47520;DHT22;33252;48.122;11.538;2023-02-28T12:05:42;1.00;94.40
47520;DHT22;33252;48.122;11.538;2023-02-28T12:08:40;1.20;94.90
47520;DHT22;33252;48.122;11.538;2023-02-28T12:11:19;1.10;94.80
47520;DHT22;33252;48.122;11.538;2023-02-28T12:19:48;1.40;94.80
47520;DHT22;33252;48.122;11.538;2023-02-28T12:22:41;1.70;94.60
47520;DHT22;33252;48.122;11.538;2023-02-28T12:25:41;1.70;94.20
47520;DHT22;33252;48.122;11.538;2023-02-28T12:28:12;1.60;94.30
47520;DHT22;33252;48.122;11.538;2023-02-28T12:30:44;1.60;94.30
47520;DHT22;33252;48.122;11.538;2023-02-28T12:33:15;1.60;94.50
47520;DHT22;33252;48.122;11.538;2023-02-28T12:35:52;1.70;94.00
47520;DHT22;33252;48.122;11.538;2023-02-28T12:38:33;1.80;94.10
47520;DHT22;33252;48.122;11.538;2023-02-28T12:41:05;1.80;94.20
47520;DHT22;33252;48.122;11.538;2023-02-28T12:43:41;1.70;94.00
47520;DHT22;33252;48.122;11.538;2023-02-28T12:46:21;1.80;94.10
47520;DHT22;33252;48.122;11.538;2023-02-28T12:48:55;1.90;93.70
47520;DHT22;33252;48.122;11.538;2023-02-28T12:51:23;1.90;93.50
47520;DHT22;33252;48.122;11.538;2023-02-28T12:59:32;2.50;93.00
47520;DHT22;33252;48.122;11.538;2023-02-28T13:10:08;3.80;91.20
47520;DHT22;33252;48.122;11.538;2023-02-28T13:12:35;3.60;91.30
47520;DHT22;33252;48.122;11.538;2023-02-28T13:15:05;3.20;91.80
47520;DHT22;33252;48.122;11.538;2023-02-28T13:17:32;2.90;91.60
47520;DHT22;33252;48.122;11.538;2023-02-28T13:19:59;2.70;92.00
47520;DHT22;33252;48.122;11.538;2023-02-28T13:23:00;2.60;92.00
47520;DHT22;33252;48.122;11.538;2023-02-28T13:28:00;2.60;92.50
47520;DHT22;33252;48.122;11.538;2023-02-28T13:33:22;2.40;92.70
47520;DHT22;33252;48.122;11.538;2023-02-28T13:35:49;2.40;92.20
47520;DHT22;33252;48.122;11.538;2023-02-28T13:38:34;2.80;92.00
47520;DHT22;33252;48.122;11.538;2023-02-28T13:46:32;2.40;92.80
47520;DHT22;33252;48.122;11.538;2023-02-28T13:57:33;2.40;92.70
47520;DHT22;33252;48.122;11.538;2023-02-28T14:00:19;2.30;92.90
47520;DHT22;33252;48.122;11.538;2023-02-28T14:05:27;2.50;92.60
47520;DHT22;33252;48.122;11.538;2023-02-28T14:07:57;2.40;92.50
47520;DHT22;33252;48.122;11.538;2023-02-28T14:10:30;2.20;92.50
47520;DHT22;33252;48.122;11.538;2023-02-28T14:13:03;2.40;92.40
47520;DHT22;33252;48.122;11.538;2023-02-28T14:20:41;2.60;92.40
47520;DHT22;33252;48.122;11.538;2023-02-28T14:23:38;2.60;92.60
47520;DHT22;33252;48.122;11.538;2023-02-28T14:26:14;2.80;92.70
47520;DHT22;33252;48.122;11.538;2023-02-28T14:29:21;3.00;92.00
47520;DHT22;33252;48.122;11.538;2023-02-28T14:32:00;3.10;91.90
47520;DHT22;33252;48.122;11.538;2023-02-28T14:34:43;3.20;92.10
47520;DHT22;33252;48.122;11.538;2023-02-28T14:37:28;3.50;91.20
47520;DHT22;33252;48.122;11.538;2023-02-28T14:39:56;3.60;91.00
47520;DHT22;33252;48.122;11.538;2023-02-28T14:42:45;3.40;91.40
47520;DHT22;33252;48.122;11.538;2023-02-28T14:45:19;3.40;91.10
47520;DHT22;33252;48.122;11.538;2023-02-28T14:47:46;3.40;91.60
47520;DHT22;33252;48.122;11.538;2023-02-28T14:50:21;3.20;91.40
47520;DHT22;33252;48.122;11.538;2023-02-28T14:52:49;3.20;91.50
47520;DHT22;33252;48.122;11.538;2023-02-28T14:55:19;2.90;91.80
47520;DHT22;33252;48.122;11.538;2023-02-28T14:58:00;3.10;91.60
47520;DHT22;33252;48.122;11.538;2023-02-28T15:00:39;3.20;91.90
47520;DHT22;33252;48.122;11.538;2023-02-28T15:05:58;3.50;91.50
47520;DHT22;33252;48.122;11.538;2023-02-28T15:08:25;3.30;91.70
47520;DHT22;33252;48.122;11.538;2023-02-28T15:11:11;3.30;91.70
47520;DHT22;33252;48.122;11.538;2023-02-28T15:13:54;3.40;91.50
47520;DHT22;33252;48.122;11.538;2023-02-28T15:16:28;3.30;91.80
47520;DHT22;33252;48.122;11.538;2023-02-28T15:22:02;3.30;91.40
47520;DHT22;33252;48.122;11.538;2023-02-28T15:24:48;3.30;92.00
47520;DHT22;33252;48.122;11.538;2023-02-28T15:27:25;3.50;91.30
47520;DHT22;33252;48.122;11.538;2023-02-28T15:29:56;3.40;91.60
47520;DHT22;33252;48.122;11.538;2023-02-28T15:32:30;3.30;91.90
47520;DHT22;33252;48.122;11.538;2023-02-28T15:34:58;3.20;92.00
47520;DHT22;33252;48.122;11.538;2023-02-28T15:37:37;3.00;92.40
47520;DHT22;33252;48.122;11.538;2023-02-28T15:40:32;3.00;92.10
47520;DHT22;33252;48.122;11.538;2023-02-28T15:43:13;2.90;92.60
47520;DHT22;33252;48.122;11.538;2023-02-28T15:45:52;3.00;92.10
47520;DHT22;33252;48.122;11.538;2023-02-28T15:48:30;3.00;92.20
47520;DHT22;33252;48.122;11.538;2023-02-28T15:51:07;2.80;92.40
47520;DHT22;33252;48.122;11.538;2023-02-28T15:53:45;2.90;92.10
47520;DHT22;33252;48.122;11.538;2023-02-28T15:56:24;2.80;92.50
47520;DHT22;33252;48.122;11.538;2023-02-28T15:58:56;2.70;92.90
47520;DHT22;33252;48.122;11.538;2023-02-28T16:01:31;2.70;92.70
47520;DHT22;33252;48.122;11.538;2023-02-28T16:04:04;2.60;92.50
47520;DHT22;33252;48.122;11.538;2023-02-28T16:06:40;2.50;93.00
47520;DHT22;33252;48.122;11.538;2023-02-28T16:09:12;2.40;93.20
47520;DHT22;33252;48.122;11.538;2023-02-28T16:11:41;2.50;93.10
47520;DHT22;33252;48.122;11.538;2023-02-28T16:14:25;2.40;93.00
47520;DHT22;33252;48.122;11.538;2023-02-28T16:16:55;2.50;93.10
47520;DHT22;33252;48.122;11.538;2023-02-28T16:19:22;2.50;93.10
47520;DHT22;33252;48.122;11.538;2023-02-28T16:21:48;2.40;93.60
47520;DHT22;33252;48.122;11.538;2023-02-28T16:24:14;2.30;93.90
47520;DHT22;33252;48.122;11.538;2023-02-28T16:26:40;2.20;94.10
47520;DHT22;33252;48.122;11.538;2023-02-28T16:29:13;2.30;93.80
47520;DHT22;33252;48.122;11.538;2023-02-28T16:31:40;2.20;94.20
47520;DHT22;33252;48.122;11.538;2023-02-28T16:34:06;2.10;94.30
47520;DHT22;33252;48.122;11.538;2023-02-28T16:36:31;2.00;94.60
47520;DHT22;33252;48.122;11.538;2023-02-28T16:38:57;2.00;94.60
47520;DHT22;33252;48.122;11.538;2023-02-28T16:41:27;2.00;94.80
47520;DHT22;33252;48.122;11.538;2023-02-28T16:43:55;1.90;94.90
47520;DHT22;33252;48.122;11.538;2023-02-28T16:46:33;1.80;95.20
47520;DHT22;33252;48.122;11.538;2023-02-28T16:48:59;1.90;95.10
47520;DHT22;33252;48.122;11.538;2023-02-28T16:51:25;1.90;94.90
47520;DHT22;33252;48.122;11.538;2023-02-28T16:53:51;1.80;95.10
47520;DHT22;33252;48.122;11.538;2023-02-28T16:56:22;1.90;94.80
47520;DHT22;33252;48.122;11.538;2023-02-28T16:58:49;1.90;94.80
47520;DHT22;33252;48.122;11.538;2023-02-28T17:01:15;1.80;95.20
47520;DHT22;33252;48.122;11.538;2023-02-28T17:03:41;1.70;95.30
47520;DHT22;33252;48.122;11.538;2023-02-28T17:06:20;1.70;95.40
47520;DHT22;33252;48.122;11.538;2023-02-28T17:08:48;1.70;95.40
47520;DHT22;33252;48.122;11.538;2023-02-28T17:11:13;1.70;95.50
47520;DHT22;33252;48.122;11.538;2023-02-28T17:13:39;1.60;95.60
47520;DHT22;33252;48.122;11.538;2023-02-28T17:16:05;1.50;95.70
47520;DHT22;33252;48.122;11.538;2023-02-28T17:18:31;1.40;95.90
47520;DHT22;33252;48.122;11.538;2023-02-28T17:21:00;1.40;95.70
47520;DHT22;33252;48.122;11.538;2023-02-28T17:23:26;1.40;95.90
47520;DHT22;33252;48.122;11.538;2023-02-28T17:25:51;1.30;96.10
47520;DHT22;33252;48.122;11.538;2023-02-28T17:28:21;1.20;96.10
47520;DHT22;33252;48.122;11.538;2023-02-28T17:30:48;1.20;96.30
47520;DHT22;33252;48.122;11.538;2023-02-28T17:33:14;1.20;96.80
47520;DHT22;33252;48.122;11.538;2023-02-28T17:35:40;1.20;96.40
47520;DHT22;33252;48.122;11.538;2023-02-28T17:38:17;1.30;96.70
47520;DHT22;33252;48.122;11.538;2023-02-28T17:40:43;1.30;96.50
47520;DHT22;33252;48.122;11.538;2023-02-28T17:43:12;1.30;97.10
47520;DHT22;33252;48.122;11.538;2023-02-28T17:45:40;1.40;96.70
47520;DHT22;33252;48.122;11.538;2023-02-28T17:48:08;1.30;96.70
47520;DHT22;33252;48.122;11.538;2023-02-28T17:50:34;1.20;96.90
47520;DHT22;33252;48.122;11.538;2023-02-28T17:53:00;1.30;97.00